sensor_id;sensor_type;location;lat;lon;timestamp;P1;durP1;ratioP1;P2;durP2;ratioP2
21647;SDS011;10985;54.182;7.890;2023-06-10T00:01:54;18.55;;;8.20;;
21647;SDS011;10985;54.182;7.890;2023-06-10T00:04:24;27.00;;;8.60;;
21647;SDS011;10985;54.182;7.890;2023-06-10T00:06:50;21.17;;;8.98;;
21647;SDS011;10985;54.182;7.890;2023-06-10T00:09:16;22.55;;;8.18;;
21647;SDS011;10985;54.182;7.890;2023-06-10T00:11:43;24.85;;;9.07;;
21647;SDS011;10985;54.182;7.890;2023-06-10T00:14:09;25.50;;;9.43;;
21647;SDS011;10985;54.182;7.890;2023-06-10T00:16:34;23.77;;;8.48;;
21647;SDS011;10985;54.182;7.890;2023-06-10T00:19:01;22.95;;;8.77;;
21647;SDS011;10985;54.182;7.890;2023-06-10T00:21:28;26.38;;;9.10;;
21647;SDS011;10985;54.182;7.890;2023-06-10T00:23:54;18.75;;;8.88;;
21647;SDS011;10985;54.182;7.890;2023-06-10T00:26:21;27.45;;;9.70;;
21647;SDS011;10985;54.182;7.890;2023-06-10T00:28:51;25.73;;;9.80;;
21647;SDS011;10985;54.182;7.890;2023-06-10T00:31:17;24.40;;;8.95;;
21647;SDS011;10985;54.182;7.890;2023-06-10T00:33:42;22.88;;;9.45;;
21647;SDS011;10985;54.182;7.890;2023-06-10T00:36:08;24.35;;;9.60;;
21647;SDS011;10985;54.182;7.890;2023-06-10T00:38:34;25.45;;;9.73;;
21647;SDS011;10985;54.182;7.890;2023-06-10T00:40:59;27.92;;;9.77;;
21647;SDS011;10985;54.182;7.890;2023-06-10T00:43:25;32.50;;;10.32;;
21647;SDS011;10985;54.182;7.890;2023-06-10T00:45:51;22.27;;;9.05;;
21647;SDS011;10985;54.182;7.890;2023-06-10T00:48:17;23.83;;;9.60;;
21647;SDS011;10985;54.182;7.890;2023-06-10T00:50:43;25.17;;;9.60;;
21647;SDS011;10985;54.182;7.890;2023-06-10T00:53:10;26.05;;;10.07;;
21647;SDS011;10985;54.182;7.890;2023-06-10T00:55:35;26.52;;;9.18;;
21647;SDS011;10985;54.182;7.890;2023-06-10T00:58:02;19.60;;;9.55;;
21647;SDS011;10985;54.182;7.890;2023-06-10T01:00:29;24.80;;;9.70;;
21647;SDS011;10985;54.182;7.890;2023-06-10T01:02:54;36.60;;;10.50;;
21647;SDS011;10985;54.182;7.890;2023-06-10T01:05:20;25.83;;;10.07;;
21647;SDS011;10985;54.182;7.890;2023-06-10T01:08:07;26.85;;;9.38;;
21647;SDS011;10985;54.182;7.890;2023-06-10T01:10:47;26.80;;;10.20;;
21647;SDS011;10985;54.182;7.890;2023-06-10T01:13:24;25.58;;;10.25;;
21647;SDS011;10985;54.182;7.890;2023-06-10T01:15:53;26.23;;;9.63;;
21647;SDS011;10985;54.182;7.890;2023-06-10T01:18:20;29.20;;;10.50;;
21647;SDS011;10985;54.182;7.890;2023-06-10T01:20:46;28.13;;;10.57;;
21647;SDS011;10985;54.182;7.890;2023-06-10T01:23:13;27.38;;;9.55;;
21647;SDS011;10985;54.182;7.890;2023-06-10T01:25:41;22.60;;;9.25;;
21647;SDS011;10985;54.182;7.890;2023-06-10T01:28:36;28.75;;;10.43;;
21647;SDS011;10985;54.182;7.890;2023-06-10T01:33:47;25.27;;;9.73;;
21647;SDS011;10985;54.182;7.890;2023-06-10T01:36:17;19.77;;;9.18;;
21647;SDS011;10985;54.182;7.890;2023-06-10T01:38:44;20.60;;;9.85;;
21647;SDS011;10985;54.182;7.890;2023-06-10T01:41:11;26.83;;;9.82;;
21647;SDS011;10985;54.182;7.890;2023-06-10T01:43:39;27.85;;;9.48;;
21647;SDS011;10985;54.182;7.890;2023-06-10T01:46:05;22.10;;;9.60;;
21647;SDS011;10985;54.182;7.890;2023-06-10T01:48:31;21.95;;;10.05;;
21647;SDS011;10985;54.182;7.890;2023-06-10T01:50:58;23.67;;;9.68;;
21647;SDS011;10985;54.182;7.890;2023-06-10T01:53:23;29.83;;;9.30;;
21647;SDS011;10985;54.182;7.890;2023-06-10T01:55:49;29.48;;;9.60;;
21647;SDS011;10985;54.182;7.890;2023-06-10T01:58:15;22.23;;;9.60;;
21647;SDS011;10985;54.182;7.890;2023-06-10T02:00:41;23.05;;;8.02;;
21647;SDS011;10985;54.182;7.890;2023-06-10T02:03:06;26.17;;;9.13;;
21647;SDS011;10985;54.182;7.890;2023-06-10T02:05:32;22.58;;;9.00;;
21647;SDS011;10985;54.182;7.890;2023-06-10T02:07:57;20.63;;;8.95;;
21647;SDS011;10985;54.182;7.890;2023-06-10T02:10:23;23.40;;;9.30;;
21647;SDS011;10985;54.182;7.890;2023-06-10T02:12:49;26.77;;;9.10;;
21647;SDS011;10985;54.182;7.890;2023-06-10T02:15:14;20.42;;;8.63;;
21647;SDS011;10985;54.182;7.890;2023-06-10T02:17:40;23.55;;;9.43;;
21647;SDS011;10985;54.182;7.890;2023-06-10T02:20:05;22.25;;;9.05;;
21647;SDS011;10985;54.182;7.890;2023-06-10T02:22:32;20.58;;;8.73;;
21647;SDS011;10985;54.182;7.890;2023-06-10T02:24:58;24.00;;;9.27;;
21647;SDS011;10985;54.182;7.890;2023-06-10T02:27:24;22.65;;;8.60;;
21647;SDS011;10985;54.182;7.890;2023-06-10T02:29:50;21.80;;;8.50;;
21647;SDS011;10985;54.182;7.890;2023-06-10T02:32:15;18.65;;;8.90;;
21647;SDS011;10985;54.182;7.890;2023-06-10T02:34:41;27.38;;;9.13;;
21647;SDS011;10985;54.182;7.890;2023-06-10T02:37:08;26.70;;;9.73;;
21647;SDS011;10985;54.182;7.890;2023-06-10T02:39:34;25.92;;;8.48;;
21647;SDS011;10985;54.182;7.890;2023-06-10T02:42:00;24.42;;;8.82;;
21647;SDS011;10985;54.182;7.890;2023-06-10T02:44:25;18.00;;;8.57;;
21647;SDS011;10985;54.182;7.890;2023-06-10T02:46:51;29.58;;;9.02;;
21647;SDS011;10985;54.182;7.890;2023-06-10T02:49:16;22.50;;;7.70;;
21647;SDS011;10985;54.182;7.890;2023-06-10T02:51:42;23.95;;;8.52;;
21647;SDS011;10985;54.182;7.890;2023-06-10T02:54:07;19.63;;;7.07;;
21647;SDS011;10985;54.182;7.890;2023-06-10T02:56:33;22.27;;;8.05;;
21647;SDS011;10985;54.182;7.890;2023-06-10T02:58:58;17.80;;;7.55;;
21647;SDS011;10985;54.182;7.890;2023-06-10T03:01:24;21.13;;;6.75;;
21647;SDS011;10985;54.182;7.890;2023-06-10T03:03:50;18.38;;;7.28;;
21647;SDS011;10985;54.182;7.890;2023-06-10T03:06:16;21.60;;;7.70;;
21647;SDS011;10985;54.182;7.890;2023-06-10T03:08:41;20.13;;;7.15;;
21647;SDS011;10985;54.182;7.890;2023-06-10T03:11:07;17.45;;;7.15;;
21647;SDS011;10985;54.182;7.890;2023-06-10T03:13:33;16.75;;;7.55;;
21647;SDS011;10985;54.182;7.890;2023-06-10T03:15:58;23.85;;;6.70;;
21647;SDS011;10985;54.182;7.890;2023-06-10T03:18:25;15.35;;;7.22;;
21647;SDS011;10985;54.182;7.890;2023-06-10T03:20:52;22.17;;;7.30;;
21647;SDS011;10985;54.182;7.890;2023-06-10T03:23:18;21.13;;;7.15;;
21647;SDS011;10985;54.182;7.890;2023-06-10T03:25:44;28.83;;;7.10;;
21647;SDS011;10985;54.182;7.890;2023-06-10T03:28:10;24.23;;;7.25;;
21647;SDS011;10985;54.182;7.890;2023-06-10T03:30:36;20.40;;;7.00;;
21647;SDS011;10985;54.182;7.890;2023-06-10T03:33:01;16.20;;;5.78;;
21647;SDS011;10985;54.182;7.890;2023-06-10T03:35:27;18.38;;;6.60;;
21647;SDS011;10985;54.182;7.890;2023-06-10T03:37:52;14.05;;;6.15;;
21647;SDS011;10985;54.182;7.890;2023-06-10T03:40:18;18.70;;;6.43;;
21647;SDS011;10985;54.182;7.890;2023-06-10T03:42:43;15.82;;;5.72;;
21647;SDS011;10985;54.182;7.890;2023-06-10T03:45:09;13.05;;;5.75;;
21647;SDS011;10985;54.182;7.890;2023-06-10T03:47:36;15.75;;;6.15;;
21647;SDS011;10985;54.182;7.890;2023-06-10T03:50:05;17.75;;;6.32;;
21647;SDS011;10985;54.182;7.890;2023-06-10T03:52:31;16.58;;;5.88;;
21647;SDS011;10985;54.182;7.890;2023-06-10T03:54:57;12.93;;;5.93;;
21647;SDS011;10985;54.182;7.890;2023-06-10T03:57:22;15.80;;;6.00;;
21647;SDS011;10985;54.182;7.890;2023-06-10T03:59:48;17.67;;;6.28;;
21647;SDS011;10985;54.182;7.890;2023-06-10T04:02:13;17.25;;;6.25;;
21647;SDS011;10985;54.182;7.890;2023-06-10T04:04:39;17.75;;;6.53;;
21647;SDS011;10985;54.182;7.890;2023-06-10T04:07:06;13.90;;;5.93;;
21647;SDS011;10985;54.182;7.890;2023-06-10T04:09:31;18.67;;;5.95;;
21647;SDS011;10985;54.182;7.890;2023-06-10T04:11:57;18.23;;;6.18;;
21647;SDS011;10985;54.182;7.890;2023-06-10T04:14:22;16.33;;;5.22;;
21647;SDS011;10985;54.182;7.890;2023-06-10T04:16:48;18.52;;;5.93;;
21647;SDS011;10985;54.182;7.890;2023-06-10T04:19:15;11.90;;;4.82;;
21647;SDS011;10985;54.182;7.890;2023-06-10T04:21:41;15.30;;;5.18;;
21647;SDS011;10985;54.182;7.890;2023-06-10T04:24:07;18.70;;;5.25;;
21647;SDS011;10985;54.182;7.890;2023-06-10T04:26:32;19.58;;;5.70;;
21647;SDS011;10985;54.182;7.890;2023-06-10T04:29:00;19.73;;;5.60;;
21647;SDS011;10985;54.182;7.890;2023-06-10T04:31:25;22.55;;;6.60;;
21647;SDS011;10985;54.182;7.890;2023-06-10T04:33:51;13.75;;;5.15;;
21647;SDS011;10985;54.182;7.890;2023-06-10T04:36:16;17.00;;;5.47;;
21647;SDS011;10985;54.182;7.890;2023-06-10T04:38:42;13.05;;;5.13;;
21647;SDS011;10985;54.182;7.890;2023-06-10T04:41:08;11.55;;;5.20;;
21647;SDS011;10985;54.182;7.890;2023-06-10T04:43:33;13.48;;;4.80;;
21647;SDS011;10985;54.182;7.890;2023-06-10T04:45:59;13.23;;;4.40;;
21647;SDS011;10985;54.182;7.890;2023-06-10T04:48:24;14.18;;;5.07;;
21647;SDS011;10985;54.182;7.890;2023-06-10T04:53:18;12.85;;;4.15;;
21647;SDS011;10985;54.182;7.890;2023-06-10T04:55:43;13.13;;;4.20;;
21647;SDS011;10985;54.182;7.890;2023-06-10T04:58:09;19.50;;;4.45;;
21647;SDS011;10985;54.182;7.890;2023-06-10T05:00:35;17.75;;;4.30;;
21647;SDS011;10985;54.182;7.890;2023-06-10T05:03:00;10.68;;;4.00;;
21647;SDS011;10985;54.182;7.890;2023-06-10T05:05:26;12.93;;;4.40;;
21647;SDS011;10985;54.182;7.890;2023-06-10T05:07:51;13.80;;;4.03;;
21647;SDS011;10985;54.182;7.890;2023-06-10T05:10:17;10.35;;;3.88;;
21647;SDS011;10985;54.182;7.890;2023-06-10T05:12:42;17.40;;;4.78;;
21647;SDS011;10985;54.182;7.890;2023-06-10T05:15:08;14.13;;;4.80;;
21647;SDS011;10985;54.182;7.890;2023-06-10T05:17:34;12.20;;;3.88;;
21647;SDS011;10985;54.182;7.890;2023-06-10T05:20:03;10.20;;;3.50;;
21647;SDS011;10985;54.182;7.890;2023-06-10T05:22:29;10.90;;;3.95;;
21647;SDS011;10985;54.182;7.890;2023-06-10T05:24:54;8.73;;;3.22;;
21647;SDS011;10985;54.182;7.890;2023-06-10T05:27:20;9.40;;;3.67;;
21647;SDS011;10985;54.182;7.890;2023-06-10T05:29:47;12.07;;;3.75;;
21647;SDS011;10985;54.182;7.890;2023-06-10T05:32:12;8.68;;;3.55;;
21647;SDS011;10985;54.182;7.890;2023-06-10T05:34:38;10.00;;;4.68;;
21647;SDS011;10985;54.182;7.890;2023-06-10T05:37:04;11.75;;;3.90;;
21647;SDS011;10985;54.182;7.890;2023-06-10T05:39:29;9.63;;;4.38;;
21647;SDS011;10985;54.182;7.890;2023-06-10T05:41:55;14.65;;;4.05;;
21647;SDS011;10985;54.182;7.890;2023-06-10T05:44:20;10.25;;;3.58;;
21647;SDS011;10985;54.182;7.890;2023-06-10T05:46:46;14.13;;;8.20;;
21647;SDS011;10985;54.182;7.890;2023-06-10T05:49:12;14.57;;;5.35;;
21647;SDS011;10985;54.182;7.890;2023-06-10T05:51:37;8.63;;;4.00;;
21647;SDS011;10985;54.182;7.890;2023-06-10T05:54:03;13.10;;;5.30;;
21647;SDS011;10985;54.182;7.890;2023-06-10T05:56:28;10.70;;;4.20;;
21647;SDS011;10985;54.182;7.890;2023-06-10T05:58:54;12.82;;;4.15;;
21647;SDS011;10985;54.182;7.890;2023-06-10T06:01:20;8.38;;;4.13;;
21647;SDS011;10985;54.182;7.890;2023-06-10T06:03:46;12.07;;;3.70;;
21647;SDS011;10985;54.182;7.890;2023-06-10T06:06:11;10.35;;;3.70;;
21647;SDS011;10985;54.182;7.890;2023-06-10T06:08:37;9.25;;;3.60;;
21647;SDS011;10985;54.182;7.890;2023-06-10T06:11:03;9.27;;;3.40;;
21647;SDS011;10985;54.182;7.890;2023-06-10T06:13:28;16.75;;;3.75;;
21647;SDS011;10985;54.182;7.890;2023-06-10T06:15:54;10.85;;;3.47;;
21647;SDS011;10985;54.182;7.890;2023-06-10T06:18:19;9.10;;;2.80;;
21647;SDS011;10985;54.182;7.890;2023-06-10T06:20:45;11.95;;;4.50;;
21647;SDS011;10985;54.182;7.890;2023-06-10T06:23:10;15.18;;;4.47;;
21647;SDS011;10985;54.182;7.890;2023-06-10T06:25:36;11.73;;;4.80;;
21647;SDS011;10985;54.182;7.890;2023-06-10T06:28:04;10.55;;;3.53;;
21647;SDS011;10985;54.182;7.890;2023-06-10T06:30:34;10.55;;;3.42;;
21647;SDS011;10985;54.182;7.890;2023-06-10T06:33:00;10.00;;;2.97;;
21647;SDS011;10985;54.182;7.890;2023-06-10T06:35:25;8.48;;;3.08;;
21647;SDS011;10985;54.182;7.890;2023-06-10T06:37:51;15.18;;;8.45;;
21647;SDS011;10985;54.182;7.890;2023-06-10T06:40:16;12.57;;;6.40;;
21647;SDS011;10985;54.182;7.890;2023-06-10T06:42:41;10.60;;;3.10;;
21647;SDS011;10985;54.182;7.890;2023-06-10T06:45:07;9.80;;;3.42;;
21647;SDS011;10985;54.182;7.890;2023-06-10T06:47:33;8.10;;;4.15;;
21647;SDS011;10985;54.182;7.890;2023-06-10T06:49:58;12.48;;;3.83;;
21647;SDS011;10985;54.182;7.890;2023-06-10T06:52:24;7.40;;;3.70;;
21647;SDS011;10985;54.182;7.890;2023-06-10T06:54:49;11.63;;;4.07;;
21647;SDS011;10985;54.182;7.890;2023-06-10T06:57:15;11.82;;;4.63;;
21647;SDS011;10985;54.182;7.890;2023-06-10T06:59:40;15.40;;;3.47;;
21647;SDS011;10985;54.182;7.890;2023-06-10T07:02:06;14.98;;;3.55;;
21647;SDS011;10985;54.182;7.890;2023-06-10T07:04:31;10.32;;;3.47;;
21647;SDS011;10985;54.182;7.890;2023-06-10T07:06:57;11.18;;;3.60;;
21647;SDS011;10985;54.182;7.890;2023-06-10T07:09:22;9.98;;;3.08;;
21647;SDS011;10985;54.182;7.890;2023-06-10T07:11:48;11.50;;;3.28;;
21647;SDS011;10985;54.182;7.890;2023-06-10T07:14:14;11.40;;;3.30;;
21647;SDS011;10985;54.182;7.890;2023-06-10T07:16:39;12.35;;;3.47;;
21647;SDS011;10985;54.182;7.890;2023-06-10T07:19:05;12.02;;;2.55;;
21647;SDS011;10985;54.182;7.890;2023-06-10T07:21:30;9.20;;;2.72;;
21647;SDS011;10985;54.182;7.890;2023-06-10T07:23:57;10.23;;;3.35;;
21647;SDS011;10985;54.182;7.890;2023-06-10T07:26:29;9.02;;;2.58;;
21647;SDS011;10985;54.182;7.890;2023-06-10T07:28:55;7.55;;;3.08;;
21647;SDS011;10985;54.182;7.890;2023-06-10T07:31:20;10.05;;;3.00;;
21647;SDS011;10985;54.182;7.890;2023-06-10T07:33:46;10.30;;;3.28;;
21647;SDS011;10985;54.182;7.890;2023-06-10T07:36:12;6.53;;;2.55;;
21647;SDS011;10985;54.182;7.890;2023-06-10T07:38:37;8.85;;;2.78;;
21647;SDS011;10985;54.182;7.890;2023-06-10T07:41:03;8.25;;;3.05;;
21647;SDS011;10985;54.182;7.890;2023-06-10T07:43:29;13.38;;;3.25;;
21647;SDS011;10985;54.182;7.890;2023-06-10T07:45:54;7.50;;;2.42;;
21647;SDS011;10985;54.182;7.890;2023-06-10T07:48:20;12.13;;;3.08;;
21647;SDS011;10985;54.182;7.890;2023-06-10T07:50:45;9.45;;;3.03;;
21647;SDS011;10985;54.182;7.890;2023-06-10T07:53:11;15.85;;;3.78;;
21647;SDS011;10985;54.182;7.890;2023-06-10T07:55:36;9.95;;;2.60;;
21647;SDS011;10985;54.182;7.890;2023-06-10T07:58:02;7.22;;;2.28;;
21647;SDS011;10985;54.182;7.890;2023-06-10T08:00:27;10.77;;;3.25;;
21647;SDS011;10985;54.182;7.890;2023-06-10T08:02:53;5.07;;;2.45;;
21647;SDS011;10985;54.182;7.890;2023-06-10T08:05:18;15.85;;;2.90;;
21647;SDS011;10985;54.182;7.890;2023-06-10T08:07:45;9.73;;;2.83;;
21647;SDS011;10985;54.182;7.890;2023-06-10T08:10:10;6.47;;;2.25;;
21647;SDS011;10985;54.182;7.890;2023-06-10T08:12:36;8.00;;;2.50;;
21647;SDS011;10985;54.182;7.890;2023-06-10T08:15:02;11.85;;;2.60;;
21647;SDS011;10985;54.182;7.890;2023-06-10T08:17:31;8.85;;;2.33;;
21647;SDS011;10985;54.182;7.890;2023-06-10T08:19:56;10.60;;;2.53;;
21647;SDS011;10985;54.182;7.890;2023-06-10T08:22:22;6.78;;;2.38;;
21647;SDS011;10985;54.182;7.890;2023-06-10T08:24:47;9.32;;;2.30;;
21647;SDS011;10985;54.182;7.890;2023-06-10T08:27:13;9.32;;;2.80;;
21647;SDS011;10985;54.182;7.890;2023-06-10T08:29:39;8.68;;;3.17;;
21647;SDS011;10985;54.182;7.890;2023-06-10T08:32:05;7.32;;;2.72;;
21647;SDS011;10985;54.182;7.890;2023-06-10T08:34:33;8.63;;;2.35;;
21647;SDS011;10985;54.182;7.890;2023-06-10T08:36:59;5.53;;;2.67;;
21647;SDS011;10985;54.182;7.890;2023-06-10T08:39:25;8.43;;;2.75;;
21647;SDS011;10985;54.182;7.890;2023-06-10T08:42:00;10.93;;;2.50;;
21647;SDS011;10985;54.182;7.890;2023-06-10T08:44:35;7.45;;;2.22;;
21647;SDS011;10985;54.182;7.890;2023-06-10T08:47:06;5.93;;;2.28;;
21647;SDS011;10985;54.182;7.890;2023-06-10T08:49:38;6.28;;;2.30;;
21647;SDS011;10985;54.182;7.890;2023-06-10T08:52:06;6.38;;;2.63;;
21647;SDS011;10985;54.182;7.890;2023-06-10T08:54:33;9.10;;;2.47;;
21647;SDS011;10985;54.182;7.890;2023-06-10T08:57:02;7.78;;;2.13;;
21647;SDS011;10985;54.182;7.890;2023-06-10T08:59:30;12.07;;;2.65;;
21647;SDS011;10985;54.182;7.890;2023-06-10T09:01:56;7.60;;;2.92;;
21647;SDS011;10985;54.182;7.890;2023-06-10T09:04:23;7.15;;;2.10;;
21647;SDS011;10985;54.182;7.890;2023-06-10T09:06:49;9.50;;;2.08;;
21647;SDS011;10985;54.182;7.890;2023-06-10T09:09:15;8.73;;;2.33;;
21647;SDS011;10985;54.182;7.890;2023-06-10T09:11:43;5.97;;;2.03;;
21647;SDS011;10985;54.182;7.890;2023-06-10T09:14:09;6.40;;;2.40;;
21647;SDS011;10985;54.182;7.890;2023-06-10T09:16:34;7.47;;;2.53;;
21647;SDS011;10985;54.182;7.890;2023-06-10T09:19:02;6.75;;;2.20;;
21647;SDS011;10985;54.182;7.890;2023-06-10T09:21:32;7.05;;;2.70;;
21647;SDS011;10985;54.182;7.890;2023-06-10T09:23:58;7.13;;;2.28;;
21647;SDS011;10985;54.182;7.890;2023-06-10T09:26:27;9.60;;;2.80;;
21647;SDS011;10985;54.182;7.890;2023-06-10T09:28:57;8.20;;;2.25;;
21647;SDS011;10985;54.182;7.890;2023-06-10T09:31:30;8.35;;;2.58;;
21647;SDS011;10985;54.182;7.890;2023-06-10T09:34:12;4.28;;;2.30;;
21647;SDS011;10985;54.182;7.890;2023-06-10T09:36:40;6.20;;;2.25;;
21647;SDS011;10985;54.182;7.890;2023-06-10T09:39:18;5.88;;;2.05;;
21647;SDS011;10985;54.182;7.890;2023-06-10T09:41:47;7.22;;;2.00;;
21647;SDS011;10985;54.182;7.890;2023-06-10T09:44:16;6.68;;;2.58;;
21647;SDS011;10985;54.182;7.890;2023-06-10T09:46:48;9.82;;;2.58;;
21647;SDS011;10985;54.182;7.890;2023-06-10T09:49:15;5.63;;;2.75;;
21647;SDS011;10985;54.182;7.890;2023-06-10T09:51:51;12.55;;;2.92;;
21647;SDS011;10985;54.182;7.890;2023-06-10T09:54:17;9.50;;;3.00;;
21647;SDS011;10985;54.182;7.890;2023-06-10T09:56:43;8.57;;;2.65;;
21647;SDS011;10985;54.182;7.890;2023-06-10T09:59:12;6.22;;;2.55;;
21647;SDS011;10985;54.182;7.890;2023-06-10T10:01:38;7.03;;;2.20;;
21647;SDS011;10985;54.182;7.890;2023-06-10T10:04:03;7.28;;;2.08;;
21647;SDS011;10985;54.182;7.890;2023-06-10T10:06:29;4.63;;;2.55;;
21647;SDS011;10985;54.182;7.890;2023-06-10T10:08:55;10.70;;;2.58;;
21647;SDS011;10985;54.182;7.890;2023-06-10T10:11:27;7.60;;;2.35;;
21647;SDS011;10985;54.182;7.890;2023-06-10T10:14:25;5.45;;;2.67;;
21647;SDS011;10985;54.182;7.890;2023-06-10T10:16:55;10.88;;;3.30;;
21647;SDS011;10985;54.182;7.890;2023-06-10T10:19:25;7.43;;;2.20;;
21647;SDS011;10985;54.182;7.890;2023-06-10T10:21:54;8.35;;;2.72;;
21647;SDS011;10985;54.182;7.890;2023-06-10T10:24:32;5.47;;;2.33;;
21647;SDS011;10985;54.182;7.890;2023-06-10T10:27:01;7.20;;;2.40;;
21647;SDS011;10985;54.182;7.890;2023-06-10T10:29:39;7.78;;;2.42;;
21647;SDS011;10985;54.182;7.890;2023-06-10T10:32:06;4.68;;;2.22;;
21647;SDS011;10985;54.182;7.890;2023-06-10T10:34:35;6.45;;;3.03;;
21647;SDS011;10985;54.182;7.890;2023-06-10T10:37:08;8.02;;;3.72;;
21647;SDS011;10985;54.182;7.890;2023-06-10T10:39:34;6.45;;;3.00;;
21647;SDS011;10985;54.182;7.890;2023-06-10T10:42:00;6.78;;;2.90;;
21647;SDS011;10985;54.182;7.890;2023-06-10T10:44:28;7.82;;;3.30;;
21647;SDS011;10985;54.182;7.890;2023-06-10T10:46:55;8.30;;;3.10;;
21647;SDS011;10985;54.182;7.890;2023-06-10T10:49:22;7.15;;;3.80;;
21647;SDS011;10985;54.182;7.890;2023-06-10T10:52:00;8.90;;;3.10;;
21647;SDS011;10985;54.182;7.890;2023-06-10T10:54:34;9.90;;;3.53;;
21647;SDS011;10985;54.182;7.890;2023-06-10T11:02:34;7.45;;;2.85;;
21647;SDS011;10985;54.182;7.890;2023-06-10T11:05:08;8.20;;;3.20;;
21647;SDS011;10985;54.182;7.890;2023-06-10T11:07:51;6.32;;;2.97;;
21647;SDS011;10985;54.182;7.890;2023-06-10T11:10:20;9.95;;;3.28;;
21647;SDS011;10985;54.182;7.890;2023-06-10T11:12:55;6.82;;;2.83;;
21647;SDS011;10985;54.182;7.890;2023-06-10T11:15:23;10.23;;;3.25;;
21647;SDS011;10985;54.182;7.890;2023-06-10T11:31:25;5.95;;;2.40;;
21647;SDS011;10985;54.182;7.890;2023-06-10T11:33:56;7.72;;;2.78;;
21647;SDS011;10985;54.182;7.890;2023-06-10T11:36:26;6.28;;;2.55;;
21647;SDS011;10985;54.182;7.890;2023-06-10T11:38:58;5.32;;;2.70;;
21647;SDS011;10985;54.182;7.890;2023-06-10T11:41:29;5.45;;;2.42;;
21647;SDS011;10985;54.182;7.890;2023-06-10T11:43:56;6.82;;;2.75;;
21647;SDS011;10985;54.182;7.890;2023-06-10T11:46:25;10.38;;;3.05;;
21647;SDS011;10985;54.182;7.890;2023-06-10T11:48:53;7.90;;;2.90;;
21647;SDS011;10985;54.182;7.890;2023-06-10T11:51:25;7.18;;;2.92;;
21647;SDS011;10985;54.182;7.890;2023-06-10T11:53:52;6.15;;;2.72;;
21647;SDS011;10985;54.182;7.890;2023-06-10T11:56:25;7.18;;;2.95;;
21647;SDS011;10985;54.182;7.890;2023-06-10T11:58:56;7.75;;;2.80;;
21647;SDS011;10985;54.182;7.890;2023-06-10T12:01:23;8.10;;;3.38;;
21647;SDS011;10985;54.182;7.890;2023-06-10T12:03:56;7.25;;;2.58;;
21647;SDS011;10985;54.182;7.890;2023-06-10T12:06:23;10.68;;;3.25;;
21647;SDS011;10985;54.182;7.890;2023-06-10T12:08:48;8.32;;;3.15;;
21647;SDS011;10985;54.182;7.890;2023-06-10T12:11:14;7.80;;;3.40;;
21647;SDS011;10985;54.182;7.890;2023-06-10T12:13:45;10.75;;;3.70;;
21647;SDS011;10985;54.182;7.890;2023-06-10T12:16:14;10.02;;;2.88;;
21647;SDS011;10985;54.182;7.890;2023-06-10T12:18:41;6.88;;;2.67;;
21647;SDS011;10985;54.182;7.890;2023-06-10T12:21:23;7.15;;;2.60;;
21647;SDS011;10985;54.182;7.890;2023-06-10T12:24:05;6.85;;;2.50;;
21647;SDS011;10985;54.182;7.890;2023-06-10T12:26:35;9.65;;;2.92;;
21647;SDS011;10985;54.182;7.890;2023-06-10T12:29:12;7.35;;;3.28;;
21647;SDS011;10985;54.182;7.890;2023-06-10T12:31:52;5.95;;;2.65;;
21647;SDS011;10985;54.182;7.890;2023-06-10T12:34:38;9.45;;;3.47;;
21647;SDS011;10985;54.182;7.890;2023-06-10T12:37:05;7.50;;;2.92;;
21647;SDS011;10985;54.182;7.890;2023-06-10T12:39:38;9.45;;;3.10;;
21647;SDS011;10985;54.182;7.890;2023-06-10T12:42:04;9.35;;;3.13;;
21647;SDS011;10985;54.182;7.890;2023-06-10T12:44:34;6.88;;;3.35;;
21647;SDS011;10985;54.182;7.890;2023-06-10T12:47:09;6.97;;;3.05;;
21647;SDS011;10985;54.182;7.890;2023-06-10T12:49:39;9.55;;;2.97;;
21647;SDS011;10985;54.182;7.890;2023-06-10T12:52:05;8.60;;;3.17;;
21647;SDS011;10985;54.182;7.890;2023-06-10T12:54:30;8.63;;;3.35;;
21647;SDS011;10985;54.182;7.890;2023-06-10T12:56:56;11.65;;;3.60;;
21647;SDS011;10985;54.182;7.890;2023-06-10T12:59:22;8.60;;;3.13;;
21647;SDS011;10985;54.182;7.890;2023-06-10T13:01:53;6.28;;;2.78;;
21647;SDS011;10985;54.182;7.890;2023-06-10T13:04:19;7.40;;;3.15;;
21647;SDS011;10985;54.182;7.890;2023-06-10T13:06:46;8.30;;;3.08;;
21647;SDS011;10985;54.182;7.890;2023-06-10T13:09:15;7.45;;;3.50;;
21647;SDS011;10985;54.182;7.890;2023-06-10T13:11:41;14.27;;;3.38;;
21647;SDS011;10985;54.182;7.890;2023-06-10T13:14:07;6.40;;;3.28;;
21647;SDS011;10985;54.182;7.890;2023-06-10T13:16:35;8.05;;;3.30;;
21647;SDS011;10985;54.182;7.890;2023-06-10T13:19:03;6.53;;;3.10;;
21647;SDS011;10985;54.182;7.890;2023-06-10T13:21:30;6.93;;;3.15;;
21647;SDS011;10985;54.182;7.890;2023-06-10T13:23:56;10.05;;;3.88;;
21647;SDS011;10985;54.182;7.890;2023-06-10T13:26:22;8.18;;;2.72;;
21647;SDS011;10985;54.182;7.890;2023-06-10T13:28:48;9.52;;;3.42;;
21647;SDS011;10985;54.182;7.890;2023-06-10T13:31:13;9.63;;;3.38;;
21647;SDS011;10985;54.182;7.890;2023-06-10T13:33:39;10.38;;;3.70;;
21647;SDS011;10985;54.182;7.890;2023-06-10T13:36:05;7.90;;;3.35;;
21647;SDS011;10985;54.182;7.890;2023-06-10T13:38:30;7.22;;;3.40;;
21647;SDS011;10985;54.182;7.890;2023-06-10T13:40:56;5.93;;;3.05;;
21647;SDS011;10985;54.182;7.890;2023-06-10T13:43:21;11.40;;;3.22;;
21647;SDS011;10985;54.182;7.890;2023-06-10T13:45:47;10.45;;;3.40;;
21647;SDS011;10985;54.182;7.890;2023-06-10T13:48:12;7.95;;;3.17;;
21647;SDS011;10985;54.182;7.890;2023-06-10T13:50:38;9.40;;;3.85;;
21647;SDS011;10985;54.182;7.890;2023-06-10T13:53:04;9.13;;;2.95;;
21647;SDS011;10985;54.182;7.890;2023-06-10T13:55:29;8.07;;;3.50;;
21647;SDS011;10985;54.182;7.890;2023-06-10T13:57:55;11.13;;;3.67;;
21647;SDS011;10985;54.182;7.890;2023-06-10T14:00:20;6.63;;;3.42;;
21647;SDS011;10985;54.182;7.890;2023-06-10T14:02:46;7.93;;;4.03;;
21647;SDS011;10985;54.182;7.890;2023-06-10T14:05:12;12.02;;;3.67;;
21647;SDS011;10985;54.182;7.890;2023-06-10T14:07:37;6.50;;;3.67;;
21647;SDS011;10985;54.182;7.890;2023-06-10T14:10:03;11.68;;;3.33;;
21647;SDS011;10985;54.182;7.890;2023-06-10T14:12:28;6.85;;;3.50;;
21647;SDS011;10985;54.182;7.890;2023-06-10T14:14:54;13.02;;;3.58;;
21647;SDS011;10985;54.182;7.890;2023-06-10T14:17:20;10.07;;;4.47;;
21647;SDS011;10985;54.182;7.890;2023-06-10T14:19:45;16.92;;;4.13;;
21647;SDS011;10985;54.182;7.890;2023-06-10T14:22:11;12.02;;;3.60;;
21647;SDS011;10985;54.182;7.890;2023-06-10T14:24:36;6.82;;;3.58;;
21647;SDS011;10985;54.182;7.890;2023-06-10T14:27:03;10.82;;;3.58;;
21647;SDS011;10985;54.182;7.890;2023-06-10T14:29:29;12.90;;;3.78;;
21647;SDS011;10985;54.182;7.890;2023-06-10T14:31:56;11.48;;;3.80;;
21647;SDS011;10985;54.182;7.890;2023-06-10T14:34:21;10.95;;;3.55;;
21647;SDS011;10985;54.182;7.890;2023-06-10T14:36:48;9.60;;;3.55;;
21647;SDS011;10985;54.182;7.890;2023-06-10T14:39:13;13.32;;;4.07;;
21647;SDS011;10985;54.182;7.890;2023-06-10T14:41:39;13.75;;;5.25;;
21647;SDS011;10985;54.182;7.890;2023-06-10T14:44:05;10.05;;;3.85;;
21647;SDS011;10985;54.182;7.890;2023-06-10T14:46:30;13.68;;;4.00;;
21647;SDS011;10985;54.182;7.890;2023-06-10T14:48:56;12.60;;;3.80;;
21647;SDS011;10985;54.182;7.890;2023-06-10T14:51:24;9.00;;;3.63;;
21647;SDS011;10985;54.182;7.890;2023-06-10T14:53:49;12.07;;;3.80;;
21647;SDS011;10985;54.182;7.890;2023-06-10T14:56:15;12.52;;;4.10;;
21647;SDS011;10985;54.182;7.890;2023-06-10T14:58:41;16.35;;;3.65;;
21647;SDS011;10985;54.182;7.890;2023-06-10T15:01:06;11.00;;;4.15;;
21647;SDS011;10985;54.182;7.890;2023-06-10T15:03:32;12.18;;;4.35;;
21647;SDS011;10985;54.182;7.890;2023-06-10T15:05:57;15.55;;;4.13;;